createdAt,value
2023-04-23T00:06:13.120Z,51.86
2023-04-23T00:16:22.117Z,52.31
2023-04-23T00:26:27.972Z,52.66
2023-04-23T00:36:35.134Z,52.87
2023-04-23T00:56:49.842Z,53.40
2023-04-23T01:06:58.245Z,53.53
2023-04-23T01:17:06.144Z,53.62
2023-04-23T01:27:14.152Z,54.11
2023-04-23T01:37:22.263Z,54.44
2023-04-23T01:47:29.749Z,54.63
2023-04-23T01:57:36.957Z,54.58
2023-04-23T02:07:45.334Z,54.51
2023-04-23T02:17:52.628Z,54.51
2023-04-23T02:28:00.143Z,54.85
2023-04-23T02:38:08.136Z,55.16
2023-04-23T02:48:15.447Z,55.66
2023-04-23T02:58:22.477Z,56.02
2023-04-23T03:08:29.935Z,56.73
2023-04-23T03:18:36.982Z,57.27
2023-04-23T03:28:43.140Z,57.58
2023-04-23T03:38:50.759Z,57.63
2023-04-23T03:48:57.778Z,57.83
2023-04-23T03:59:04.266Z,58.01
2023-04-23T04:09:11.411Z,57.91
2023-04-23T04:19:18.948Z,57.95
2023-04-23T04:29:26.563Z,57.84
2023-04-23T04:39:33.537Z,57.34
2023-04-23T04:49:40.556Z,56.70
2023-04-23T04:59:48.056Z,56.12
2023-04-23T05:09:55.752Z,55.15
2023-04-23T05:20:02.319Z,53.55
2023-04-23T05:30:12.384Z,52.36
2023-04-23T05:40:19.615Z,52.13
2023-04-23T05:50:26.758Z,51.07
2023-04-23T06:00:35.665Z,49.90
2023-04-23T06:10:42.908Z,48.66
2023-04-23T06:20:48.824Z,48.58
2023-04-23T06:30:56.334Z,47.66
2023-04-23T06:41:04.173Z,45.83
2023-04-23T06:51:11.686Z,45.77
2023-04-23T07:01:23.461Z,45.03
2023-04-23T07:11:31.985Z,43.64
2023-04-23T07:21:39.001Z,43.19
2023-04-23T07:31:46.671Z,42.74
2023-04-23T07:41:54.706Z,41.35
2023-04-23T07:52:01.939Z,41.07
2023-04-23T08:02:10.234Z,39.46
2023-04-23T08:12:18.748Z,38.23
2023-04-23T08:22:26.233Z,38.46
2023-04-23T08:32:31.904Z,37.70
2023-04-23T08:42:38.800Z,36.14
2023-04-23T08:52:57.001Z,35.63
2023-04-23T09:03:05.364Z,36.28
2023-04-23T09:13:15.727Z,35.50
2023-04-23T09:23:24.655Z,36.36
2023-04-23T09:33:33.075Z,35.36
2023-04-23T09:43:42.682Z,35.50
2023-04-23T09:53:49.969Z,35.30
2023-04-23T10:03:56.895Z,33.71
2023-04-23T10:14:05.938Z,33.40
2023-04-23T10:24:14.878Z,35.06
2023-04-23T10:34:22.393Z,34.79
2023-04-23T10:44:50.366Z,33.63
2023-04-23T10:55:03.548Z,34.19
2023-04-23T11:05:10.951Z,33.95
2023-04-23T11:15:20.421Z,33.35
2023-04-23T11:25:30.722Z,34.27
2023-04-23T11:35:38.394Z,34.30
2023-04-23T11:45:46.358Z,34.50
2023-04-23T11:55:56.699Z,33.68
2023-04-23T12:06:03.081Z,33.99
2023-04-23T12:16:11.179Z,34.20
2023-04-23T12:26:21.538Z,33.80
2023-04-23T12:36:30.968Z,34.02
2023-04-23T12:46:38.382Z,33.39
2023-04-23T12:56:45.486Z,32.66
2023-04-23T13:06:52.696Z,32.79
2023-04-23T13:17:00.276Z,32.84
2023-04-23T13:27:07.856Z,33.24
2023-04-23T13:37:13.405Z,33.53
2023-04-23T13:47:20.818Z,33.64
2023-04-23T13:57:28.082Z,32.85
2023-04-23T14:07:35.500Z,32.64
2023-04-23T14:17:43.546Z,32.77
2023-04-23T14:27:56.824Z,32.92
2023-04-23T14:38:04.175Z,33.12
2023-04-23T14:48:11.974Z,33.10
2023-04-23T14:58:19.087Z,33.35
2023-04-23T15:08:26.840Z,33.57
2023-04-23T15:18:34.408Z,33.95
2023-04-23T15:38:47.837Z,35.40
2023-04-23T15:48:55.160Z,36.03
2023-04-23T15:59:02.488Z,36.32
2023-04-23T16:09:09.953Z,36.56
2023-04-23T16:19:18.118Z,36.70
2023-04-23T16:29:23.745Z,36.70
2023-04-23T16:39:30.065Z,36.90
2023-04-23T16:49:37.741Z,37.91
2023-04-23T16:59:44.896Z,38.66
2023-04-23T17:09:52.082Z,39.39
2023-04-23T17:19:59.360Z,40.07
2023-04-23T17:30:07.968Z,40.61
2023-04-23T17:40:12.645Z,41.12
2023-04-23T17:50:19.003Z,42.00
2023-04-23T18:00:24.132Z,42.81
2023-04-23T18:10:31.389Z,43.60
2023-04-23T18:20:39.224Z,44.54
2023-04-23T18:30:46.479Z,45.57
2023-04-23T18:40:54.189Z,46.35
2023-04-23T18:51:05.431Z,47.43
2023-04-23T19:01:12.694Z,48.56
2023-04-23T19:11:20.073Z,49.34
2023-04-23T19:21:27.920Z,50.15
2023-04-23T19:31:35.029Z,50.82
2023-04-23T19:41:42.413Z,51.72
2023-04-23T19:51:50.415Z,52.40
2023-04-23T20:01:56.433Z,53.08
2023-04-23T20:12:04.245Z,53.66
2023-04-23T20:32:18.515Z,55.17
2023-04-23T20:52:34.342Z,56.34
2023-04-23T21:02:42.218Z,56.95
2023-04-23T21:12:49.076Z,57.55
2023-04-23T21:22:55.274Z,58.01
2023-04-23T21:33:01.496Z,58.39
2023-04-23T21:43:09.952Z,58.74
2023-04-23T21:53:17.389Z,59.36
2023-04-23T22:03:37.965Z,59.78
2023-04-23T22:13:46.508Z,60.43
2023-04-23T22:23:53.550Z,60.84
2023-04-23T22:33:59.658Z,61.31
2023-04-23T22:44:07.103Z,61.65
2023-04-23T22:54:14.488Z,62.25
2023-04-23T23:04:21.593Z,62.51
2023-04-23T23:14:26.832Z,62.54
2023-04-23T23:24:35.450Z,62.90
2023-04-23T23:34:42.890Z,63.35
2023-04-23T23:44:50.187Z,63.75
2023-04-23T23:54:57.344Z,64.19
